Terminal Aerodrome Forecast
Issued by NWS

Home | Current Version | Previous Version | Text Only | Print | Product List | Glossary On
Versions: 1 2 3 4 5 6 7 8 9 10 11 12 13 14 15 16 17 18 19 20 21 22 23 24
182
FTUS42 KJAX 191730
TAFCRG
TAF
KCRG 191730Z 1918/2018 VRB04KT P6SM SCT020 BKN250
      TEMPO 1919/1920 BKN020
     FM192000 12007KT P6SM BKN035 BKN250
     FM200300 18003KT 6SM BR SCT250
     FM200700 22003KT 1SM BR BKN003
     FM201400 22006KT 5SM BR BKN007
     FM201500 22008KT P6SM SCT020 SCT250=

USA.gov is the U.S. government's official web portal to all federal, state and local government web resources and services.